Time;durP1;ratioP1;P1;durP2;ratioP2;P2;SDS_P1;SDS_P2;PMS_P1;PMS_P2;Temp;Humidity;BMP_temperature;BMP_pressure;BME280_temperature;BME280_humidity;BME280_pressure;Samples;Min_cycle;Max_cycle;Signal;HPM_P1;HPM_P2
2023/12/18 00:01:11;;;;;;;;;36.25;28.00;;;;;6.82;71.08;103015.31;4947567;28;45313;-80
2023/12/18 00:03:36;;;;;;;;;34.75;21.50;;;;;6.84;70.98;103013.63;4940463;28;45358;-80
2023/12/18 00:06:02;;;;;;;;;27.25;19.00;;;;;6.86;70.70;103015.41;4941690;28;67602;-80
2023/12/18 00:08:27;;;;;;;;;21.75;18.00;;;;;6.86;71.04;103007.59;4945924;28;45549;-80
2023/12/18 00:10:53;;;;;;;;;29.75;21.00;;;;;6.83;70.83;102998.88;4939555;28;63638;-80
2023/12/18 00:13:18;;;;;;;;;31.75;19.50;;;;;6.82;70.79;103002.31;4942283;28;46834;-81
2023/12/18 00:15:44;;;;;;;;;24.50;19.00;;;;;6.81;70.67;103007.47;4949482;28;72331;-82
2023/12/18 00:18:09;;;;;;;;;29.25;21.00;;;;;6.79;70.57;102990.94;4946581;28;62077;-79
2023/12/18 00:20:34;;;;;;;;;33.25;24.00;;;;;6.79;70.88;102994.41;4940435;28;71927;-80
2023/12/18 00:22:59;;;;;;;;;34.25;20.75;;;;;6.76;70.64;102996.06;4962898;28;58103;-80
2023/12/18 00:25:25;;;;;;;;;26.75;20.00;;;;;6.75;70.77;102991.72;4945330;28;67958;-79
2023/12/18 00:27:50;;;;;;;;;21.50;18.50;;;;;6.73;70.86;102989.06;4947772;28;54769;-80
2023/12/18 00:30:16;;;;;;;;;28.75;19.75;;;;;6.71;70.60;102995.97;4942786;28;45479;-79
2023/12/18 00:32:41;;;;;;;;;29.00;22.50;;;;;6.69;70.54;102992.41;4940217;28;72371;-79
2023/12/18 00:35:07;;;;;;;;;22.50;19.00;;;;;6.67;70.85;102996.72;4938313;28;75354;-80
2023/12/18 00:37:32;;;;;;;;;20.50;18.50;;;;;6.68;70.73;102997.63;4942020;28;45681;-79
2023/12/18 00:39:57;;;;;;;;;28.00;19.75;;;;;6.69;70.82;103001.97;4955645;28;72048;-80
2023/12/18 00:42:22;;;;;;;;;25.75;19.50;;;;;6.67;70.69;103001.03;4939367;28;73916;-80
2023/12/18 00:44:48;;;;;;;;;27.75;15.75;;;;;6.67;70.60;103007.13;4922134;28;45263;-80
2023/12/18 00:47:14;;;;;;;;;31.25;20.25;;;;;6.63;70.50;103003.56;4946610;28;45640;-79
2023/12/18 00:49:39;;;;;;;;;31.00;19.75;;;;;6.68;70.62;102995.00;4943191;28;74011;-79
2023/12/18 00:52:04;;;;;;;;;25.50;20.75;;;;;6.68;70.56;102993.28;4937746;28;63918;-80
2023/12/18 00:54:30;;;;;;;;;27.75;20.00;;;;;6.69;70.70;102989.81;4925438;28;45510;-80
2023/12/18 00:56:55;;;;;;;;;15.75;10.25;;;;;6.68;70.30;102979.41;4939713;28;45472;-80
2023/12/18 00:59:21;;;;;;;;;27.25;19.00;;;;;6.71;70.32;102976.84;4944558;28;51248;-80
2023/12/18 01:01:46;;;;;;;;;27.75;17.50;;;;;6.66;70.10;102968.94;4938905;28;46996;-80
2023/12/18 01:04:12;;;;;;;;;28.50;14.50;;;;;6.64;70.01;102968.91;4954774;28;45461;-80
2023/12/18 01:06:37;;;;;;;;;30.25;19.75;;;;;6.61;70.04;102963.63;4955748;28;45352;-80
2023/12/18 01:09:02;;;;;;;;;17.25;15.00;;;;;6.62;70.10;102970.59;4957376;28;56699;-77
2023/12/18 01:11:28;;;;;;;;;21.25;16.00;;;;;6.63;69.90;102971.47;4925047;28;47385;-79
2023/12/18 01:13:53;;;;;;;;;29.00;18.50;;;;;6.60;69.62;102961.84;4940357;28;45453;-79
2023/12/18 01:16:18;;;;;;;;;19.25;18.00;;;;;6.58;69.75;102953.13;4944412;28;69274;-79
2023/12/18 01:18:45;;;;;;;;;23.75;18.25;;;;;6.58;69.66;102953.13;4937885;28;63943;-79
2023/12/18 01:21:12;;;;;;;;;28.50;17.00;;;;;6.54;69.52;102953.03;4942527;28;45281;-78
2023/12/18 01:23:37;;;;;;;;;32.75;22.50;;;;;6.51;69.64;102950.34;4947787;28;45482;-77
2023/12/18 01:26:03;;;;;;;;;20.75;14.75;;;;;6.51;69.46;102951.22;4963198;28;65231;-78
2023/12/18 01:28:28;;;;;;;;;25.75;16.75;;;;;6.50;69.52;102951.16;4949606;28;60014;-78
2023/12/18 01:30:53;;;;;;;;;21.75;16.75;;;;;6.46;69.53;102953.72;4946001;28;71583;-78
2023/12/18 01:33:19;;;;;;;;;28.25;15.25;;;;;6.48;69.53;102951.16;4927009;28;53905;-79
2023/12/18 01:35:44;;;;;;;;;25.50;21.25;;;;;6.47;69.51;102959.78;4937870;28;68740;-78
2023/12/18 01:38:09;;;;;;;;;24.25;18.00;;;;;6.49;69.50;102965.03;4927878;28;45660;-79
2023/12/18 01:40:35;;;;;;;;;20.50;17.25;;;;;6.44;69.36;102960.56;4945717;28;47149;-78
2023/12/18 01:43:00;;;;;;;;;25.75;18.50;;;;;6.40;69.31;102965.66;4940064;28;45746;-79
2023/12/18 01:45:26;;;;;;;;;27.50;19.00;;;;;6.35;69.49;102956.88;4938088;28;69226;-79
2023/12/18 01:47:51;;;;;;;;;23.50;18.50;;;;;6.35;69.68;102960.34;4941626;28;45473;-79
2023/12/18 01:50:17;;;;;;;;;24.75;15.25;;;;;6.35;69.38;102960.34;4937619;28;46191;-78
2023/12/18 01:52:42;;;;;;;;;29.75;21.25;;;;;6.36;69.53;102969.91;4941198;28;45525;-79
2023/12/18 01:55:09;;;;;;;;;18.75;15.25;;;;;6.37;69.65;102965.59;4937814;28;68734;-79
2023/12/18 01:57:35;;;;;;;;;23.00;18.00;;;;;6.40;69.39;102960.47;4944077;28;70713;-79
2023/12/18 02:00:01;;;;;;;;;26.50;13.25;;;;;6.40;69.52;102963.06;4944442;28;46990;-79
2023/12/18 02:02:27;;;;;;;;;19.75;14.75;;;;;6.42;69.34;102962.25;4937213;28;51305;-80
2023/12/18 02:04:52;;;;;;;;;22.75;19.25;;;;;6.41;69.36;102962.22;4943383;28;68166;-80
2023/12/18 02:07:18;;;;;;;;;18.75;14.50;;;;;6.40;69.27;102963.94;4935500;28;69487;-80
2023/12/18 02:09:43;;;;;;;;;24.00;17.50;;;;;6.38;69.17;102965.63;4940420;28;45549;-80
2023/12/18 02:12:08;;;;;;;;;22.25;17.50;;;;;6.39;68.97;102964.81;4935050;28;73150;-80
2023/12/18 02:14:34;;;;;;;;;27.25;21.00;;;;;6.38;68.97;102965.63;4937900;28;68097;-78
2023/12/18 02:16:59;;;;;;;;;20.25;19.25;;;;;6.39;69.01;102966.50;4959338;28;45621;-79
2023/12/18 02:19:26;;;;;;;;;21.50;16.00;;;;;6.38;68.77;102973.44;4937880;28;73922;-80
2023/12/18 02:21:51;;;;;;;;;20.00;15.50;;;;;6.35;69.01;102973.34;4944000;28;45535;-80
2023/12/18 02:24:17;;;;;;;;;18.25;15.25;;;;;6.34;68.73;102975.91;4948160;28;45510;-79
2023/12/18 02:26:42;;;;;;;;;22.50;17.25;;;;;6.31;68.94;102968.91;4956912;28;45425;-80
2023/12/18 02:29:08;;;;;;;;;33.00;16.25;;;;;6.31;68.83;102971.50;4945431;28;52039;-78
2023/12/18 02:31:35;;;;;;;;;23.00;16.00;;;;;6.29;68.67;102964.53;4941563;28;70669;-78
2023/12/18 02:34:01;;;;;;;;;27.75;16.75;;;;;6.27;68.53;102961.88;4940013;28;45499;-80
2023/12/18 02:36:26;;;;;;;;;23.75;18.25;;;;;6.22;68.79;102960.88;4943025;28;60144;-78
2023/12/18 02:38:51;;;;;;;;;22.50;18.75;;;;;6.22;68.66;102963.47;4941308;28;60394;-78
2023/12/18 02:41:17;;;;;;;;;21.50;16.25;;;;;6.20;68.88;102963.41;4942033;28;45455;-79
2023/12/18 02:43:42;;;;;;;;;26.25;21.00;;;;;6.21;69.08;102961.69;4939769;28;69405;-79
2023/12/18 02:46:07;;;;;;;;;26.75;20.00;;;;;6.24;68.94;102970.44;4942157;28;45327;-79
2023/12/18 02:48:33;;;;;;;;;18.75;18.50;;;;;6.24;68.85;102962.66;4942843;28;61387;-79
2023/12/18 02:50:58;;;;;;;;;21.25;17.50;;;;;6.24;68.61;102964.38;4937946;28;65933;-78
2023/12/18 02:53:23;;;;;;;;;23.75;14.00;;;;;6.23;68.78;102962.59;4941643;28;53637;-78
2023/12/18 02:55:49;;;;;;;;;20.00;14.75;;;;;6.18;68.49;102957.31;4940578;28;73247;-79
2023/12/18 02:58:14;;;;;;;;;19.75;12.25;;;;;6.19;68.70;102966.84;4944889;28;46886;-79
2023/12/18 03:00:39;;;;;;;;;16.75;13.00;;;;;6.17;68.82;102952.94;4943788;28;45449;-79
2023/12/18 03:03:05;;;;;;;;;18.00;14.00;;;;;6.16;68.49;102953.78;4960656;28;67364;-79
2023/12/18 03:05:30;;;;;;;;;22.25;14.75;;;;;6.14;68.81;102954.56;4945733;28;45529;-79
2023/12/18 03:07:55;;;;;;;;;20.00;14.25;;;;;6.13;68.79;102951.09;4945299;28;69651;-80
2023/12/18 03:10:21;;;;;;;;;22.00;16.50;;;;;6.14;68.61;102952.84;4944441;28;66649;-80
2023/12/18 03:12:46;;;;;;;;;22.25;16.50;;;;;6.14;68.72;102960.63;4944349;28;45589;-79
2023/12/18 03:15:11;;;;;;;;;23.75;17.25;;;;;6.08;68.57;102958.75;4940333;28;68104;-80
2023/12/18 03:17:37;;;;;;;;;23.25;19.00;;;;;6.08;68.75;102957.88;4942220;28;45398;-80
2023/12/18 03:20:02;;;;;;;;;34.50;15.50;;;;;6.08;68.72;102963.09;4940361;28;73348;-79
2023/12/18 03:22:27;;;;;;;;;21.75;17.00;;;;;6.09;68.61;102972.63;4937832;28;45662;-80
2023/12/18 03:24:53;;;;;;;;;18.00;17.75;;;;;6.05;68.40;102971.66;4946775;28;72993;-80
2023/12/18 03:27:18;;;;;;;;;23.25;15.25;;;;;6.05;68.52;102970.78;4942998;28;45892;-79
2023/12/18 03:29:43;;;;;;;;;21.50;15.75;;;;;6.03;68.49;102957.75;4941245;28;52052;-78
2023/12/18 03:32:09;;;;;;;;;22.50;17.25;;;;;6.03;68.70;102957.75;4954437;28;45559;-78
2023/12/18 03:34:34;;;;;;;;;20.25;18.00;;;;;6.05;68.51;102961.25;4940300;28;68484;-77
2023/12/18 03:36:59;;;;;;;;;21.50;17.25;;;;;6.04;68.58;102956.06;4940469;28;45946;-78
2023/12/18 03:39:25;;;;;;;;;25.50;17.75;;;;;6.02;68.46;102958.59;4945091;28;71923;-78
2023/12/18 03:41:50;;;;;;;;;19.50;14.50;;;;;5.99;68.30;102955.03;4947045;28;69464;-78
2023/12/18 03:44:16;;;;;;;;;25.50;18.00;;;;;5.97;68.50;102952.41;4941579;28;48413;-78
2023/12/18 03:46:41;;;;;;;;;24.25;15.50;;;;;5.95;68.73;102946.25;4939923;28;47665;-78
2023/12/18 03:49:06;;;;;;;;;23.50;17.00;;;;;5.96;68.90;102949.75;4939317;28;71920;-78
2023/12/18 03:51:32;;;;;;;;;18.75;15.50;;;;;5.96;68.90;102953.22;4935297;28;60476;-78
2023/12/18 03:53:58;;;;;;;;;17.75;15.50;;;;;5.95;68.71;102955.72;4928385;28;45445;-78
2023/12/18 03:56:23;;;;;;;;;21.75;17.00;;;;;5.95;68.68;102954.03;4943366;28;45506;-79
2023/12/18 03:58:48;;;;;;;;;27.50;17.00;;;;;5.93;68.83;102947.91;4962508;28;45583;-78
2023/12/18 04:01:14;;;;;;;;;17.75;14.75;;;;;5.94;69.05;102954.88;4944438;28;46612;-77
2023/12/18 04:03:39;;;;;;;;;25.75;17.00;;;;;5.96;69.16;102957.53;4943389;28;70971;-77
2023/12/18 04:06:08;;;;;;;;;20.00;14.00;;;;;5.99;68.94;102963.72;4956932;28;77675;-77
2023/12/18 04:08:34;;;;;;;;;21.00;15.50;;;;;6.04;69.07;102961.25;4945896;28;45844;-77
2023/12/18 04:10:59;;;;;;;;;18.25;17.25;;;;;6.07;69.05;102950.91;4938690;28;57347;-78
2023/12/18 04:13:24;;;;;;;;;16.25;14.25;;;;;6.07;68.82;102956.09;4941863;28;71803;-78
2023/12/18 04:15:50;;;;;;;;;20.25;17.00;;;;;6.07;68.86;102951.81;4939977;28;63249;-78
2023/12/18 04:18:15;;;;;;;;;21.50;14.25;;;;;6.08;69.20;102953.56;4944178;28;45701;-78
2023/12/18 04:20:40;;;;;;;;;14.50;10.50;;;;;6.07;68.70;102950.91;4940943;28;61635;-78
2023/12/18 04:23:06;;;;;;;;;18.00;13.00;;;;;6.07;68.83;102944.03;4924505;28;45535;-78
2023/12/18 04:25:31;;;;;;;;;25.00;18.00;;;;;6.08;68.95;102944.88;4942105;28;45554;-78
2023/12/18 04:27:56;;;;;;;;;21.00;15.25;;;;;6.07;69.20;102949.22;4937051;28;73063;-78
2023/12/18 04:30:22;;;;;;;;;27.00;19.25;;;;;6.08;69.14;102956.16;4939844;28;67889;-78
2023/12/18 04:32:47;;;;;;;;;26.75;19.25;;;;;6.09;69.25;102959.63;4918408;28;57472;-78
2023/12/18 04:35:12;;;;;;;;;21.25;13.00;;;;;6.11;69.07;102954.47;4940009;28;52909;-78
2023/12/18 04:37:38;;;;;;;;;20.25;17.75;;;;;6.11;68.87;102957.06;4939782;28;45652;-78
2023/12/18 04:40:03;;;;;;;;;20.25;14.75;;;;;6.10;68.74;102957.94;4941466;28;45703;-78
2023/12/18 04:42:29;;;;;;;;;20.25;15.50;;;;;6.08;68.92;102947.50;4939091;28;45716;-78
2023/12/18 04:44:55;;;;;;;;;21.25;14.00;;;;;6.09;68.99;102938.84;4937390;28;46146;-77
2023/12/18 04:47:20;;;;;;;;;19.00;13.25;;;;;6.13;68.85;102942.44;4940504;28;45367;-79
2023/12/18 04:49:45;;;;;;;;;16.75;14.00;;;;;6.16;68.91;102945.09;4941016;28;54161;-78
2023/12/18 04:52:11;;;;;;;;;19.50;14.75;;;;;6.18;68.63;102946.00;4937870;28;45686;-78
2023/12/18 04:54:36;;;;;;;;;17.75;14.75;;;;;6.18;68.71;102946.00;4937445;28;71506;-77
2023/12/18 04:57:01;;;;;;;;;20.50;17.00;;;;;6.16;68.68;102940.78;4940951;28;73746;-78
2023/12/18 04:59:27;;;;;;;;;22.50;14.00;;;;;6.17;68.62;102946.84;4943842;28;45374;-78
2023/12/18 05:01:52;;;;;;;;;24.25;18.00;;;;;6.15;68.69;102946.81;4925849;28;45370;-77
2023/12/18 05:04:17;;;;;;;;;17.25;14.00;;;;;6.15;68.67;102949.41;4945526;28;70945;-79
2023/12/18 05:06:43;;;;;;;;;15.75;12.75;;;;;6.12;68.61;102951.06;4943847;28;69645;-79
2023/12/18 05:09:08;;;;;;;;;16.00;13.25;;;;;6.12;68.88;102943.25;4944361;28;45457;-78
2023/12/18 05:11:34;;;;;;;;;18.50;16.00;;;;;6.10;68.88;102940.59;4954477;28;45573;-78
2023/12/18 05:13:59;;;;;;;;;22.75;16.00;;;;;6.10;68.85;102944.94;4940399;28;45329;-78
2023/12/18 05:16:25;;;;;;;;;30.50;20.00;;;;;6.11;68.97;102936.28;4943833;28;71998;-77
2023/12/18 05:18:50;;;;;;;;;21.75;14.50;;;;;6.10;69.13;102931.94;4940755;28;59323;-78
2023/12/18 05:21:16;;;;;;;;;24.75;18.00;;;;;6.13;68.95;102934.63;4956057;28;55000;-77
2023/12/18 05:23:41;;;;;;;;;18.00;15.00;;;;;6.12;68.90;102930.25;4945608;28;45777;-77
2023/12/18 05:26:06;;;;;;;;;27.75;17.75;;;;;6.12;68.78;102931.13;4924789;28;45823;-77
2023/12/18 05:28:32;;;;;;;;;18.75;16.50;;;;;6.12;68.81;102932.84;4945796;28;67957;-78
2023/12/18 05:30:57;;;;;;;;;23.00;17.00;;;;;6.11;68.74;102928.47;4922519;28;45651;-78
2023/12/18 05:33:23;;;;;;;;;25.75;17.50;;;;;6.08;68.89;102930.16;4943374;28;46013;-78
2023/12/18 05:35:49;;;;;;;;;19.25;17.50;;;;;6.10;68.79;102938.00;4939485;28;45495;-78
2023/12/18 05:38:14;;;;;;;;;23.75;16.00;;;;;6.10;68.67;102948.41;4938015;28;45449;-78
2023/12/18 05:40:39;;;;;;;;;22.75;17.00;;;;;6.08;68.54;102953.56;4943249;28;45302;-78
2023/12/18 05:43:05;;;;;;;;;19.25;16.25;;;;;6.09;68.53;102951.81;4938248;28;70235;-78
2023/12/18 05:45:31;;;;;;;;;21.00;14.75;;;;;6.07;68.74;102941.41;4946194;28;45458;-78
2023/12/18 05:47:58;;;;;;;;;19.25;15.50;;;;;6.08;68.60;102947.50;4928372;28;45462;-78
2023/12/18 05:50:23;;;;;;;;;18.50;14.50;;;;;6.07;68.71;102936.22;4935130;28;45678;-78
2023/12/18 05:52:48;;;;;;;;;19.50;16.25;;;;;6.07;68.68;102937.91;4942615;28;63796;-78
2023/12/18 05:55:14;;;;;;;;;20.50;16.75;;;;;6.05;68.59;102934.41;4943357;28;70978;-78
2023/12/18 05:57:40;;;;;;;;;24.50;17.25;;;;;6.03;68.33;102939.56;4940746;28;65738;-79
2023/12/18 06:00:06;;;;;;;;;22.75;19.00;;;;;6.02;68.61;102930.00;4948652;28;45327;-78
2023/12/18 06:02:31;;;;;;;;;19.50;18.00;;;;;6.00;68.93;102930.78;4940756;28;45496;-78
2023/12/18 06:04:56;;;;;;;;;19.50;15.75;;;;;6.00;68.66;102928.19;4942230;28;72200;-78
2023/12/18 06:07:22;;;;;;;;;22.75;17.75;;;;;5.95;68.77;102920.25;4943774;28;68291;-78
2023/12/18 06:09:47;;;;;;;;;13.00;11.50;;;;;5.97;68.69;102929.00;4933619;28;45554;-78
2023/12/18 06:12:13;;;;;;;;;22.75;17.00;;;;;5.96;68.61;102932.44;4939403;28;75438;-79
2023/12/18 06:14:38;;;;;;;;;19.25;14.50;;;;;5.96;68.73;102931.56;4942098;28;46030;-78
2023/12/18 06:17:03;;;;;;;;;18.75;15.25;;;;;5.93;68.76;102937.50;4941185;28;60329;-79
2023/12/18 06:19:29;;;;;;;;;23.75;18.00;;;;;5.91;68.88;102936.59;4957504;28;45635;-80
2023/12/18 06:21:54;;;;;;;;;18.50;14.25;;;;;5.92;68.80;102945.28;4946830;28;45869;-78
2023/12/18 06:24:19;;;;;;;;;10.75;9.00;;;;;5.90;68.56;102946.09;4936681;28;54923;-78
2023/12/18 06:26:45;;;;;;;;;15.75;13.00;;;;;5.92;68.73;102946.16;4946883;28;65989;-78
2023/12/18 06:29:10;;;;;;;;;18.25;10.00;;;;;5.95;68.52;102942.75;4938091;28;59385;-78
2023/12/18 06:31:35;;;;;;;;;25.25;18.25;;;;;5.92;68.45;102948.75;4923287;28;47516;-79
2023/12/18 06:34:01;;;;;;;;;93.67;67.00;;;;;5.88;68.66;102952.09;4942435;28;61706;-79
2023/12/18 06:36:27;;;;;;;;;20.75;15.50;;;;;5.84;68.70;102951.16;4922529;28;45514;-78
2023/12/18 06:38:52;;;;;;;;;17.75;16.50;;;;;5.86;68.80;102953.75;4940191;28;45540;-71
2023/12/18 06:41:17;;;;;;;;;22.75;15.75;;;;;5.84;68.63;102951.16;4928221;28;47211;-76
2023/12/18 06:43:44;;;;;;;;;13.50;8.00;;;;;5.83;68.56;102954.56;4954682;28;46149;-74
2023/12/18 06:46:10;;;;;;;;;19.75;12.50;;;;;5.83;68.65;102959.75;4954382;28;60233;-80
2023/12/18 06:48:35;;;;;;;;;19.75;14.00;;;;;5.81;68.45;102957.97;4942594;28;45470;-78
2023/12/18 06:51:00;;;;;;;;;24.75;15.50;;;;;5.80;68.70;102959.66;4922833;28;47038;-72
2023/12/18 06:53:26;;;;;;;;;18.00;13.00;;;;;5.79;68.38;102954.41;4936346;28;75236;-74
2023/12/18 06:55:51;;;;;;;;;12.25;9.00;;;;;5.79;68.33;102951.81;4950087;28;47104;-80
2023/12/18 06:58:17;;;;;;;;;19.00;14.00;;;;;5.77;68.41;102956.09;4948541;28;45775;-79
2023/12/18 07:00:42;;;;;;;;;87.33;63.00;;;;;5.77;68.27;102956.09;4939700;28;74001;-80
2023/12/18 07:03:08;;;;;;;;;45.75;34.00;;;;;5.75;68.28;102957.78;4944142;28;45434;-76
2023/12/18 07:05:33;;;;;;;;;7.00;4.00;;;;;5.75;68.34;102956.06;4934776;28;45549;-73
2023/12/18 07:07:59;;;;;;;;;23.25;13.50;;;;;5.75;68.28;102955.19;4948308;28;72039;-76
2023/12/18 07:10:24;;;;;;;;;25.00;19.00;;;;;5.76;68.31;102959.56;4930521;28;47328;-75
2023/12/18 07:12:50;;;;;;;;;20.25;17.75;;;;;5.74;68.13;102958.59;4943584;28;45541;-73
2023/12/18 07:15:15;;;;;;;;;17.75;9.00;;;;;5.72;67.94;102966.38;4947036;28;61317;-67
2023/12/18 07:17:41;;;;;;;;;20.00;14.50;;;;;5.67;68.29;102971.44;4956974;28;45408;-70
2023/12/18 07:20:08;;;;;;;;;17.25;14.75;;;;;5.66;68.33;102972.25;4963917;28;71710;-71
2023/12/18 07:22:34;;;;;;;;;18.75;16.00;;;;;5.66;68.27;102984.38;4937770;28;45570;-73
2023/12/18 07:24:59;;;;;;;;;18.00;14.25;;;;;5.65;68.17;102985.22;4945684;28;45462;-79
2023/12/18 07:27:25;;;;;;;;;16.00;13.50;;;;;5.63;68.37;102979.06;4945514;28;61963;-73
2023/12/18 07:29:50;;;;;;;;;23.25;15.00;;;;;5.64;68.28;102983.44;4941796;28;62440;-73
2023/12/18 07:32:15;;;;;;;;;21.00;15.00;;;;;5.66;68.15;102990.44;4944373;28;46340;-68
2023/12/18 07:34:41;;;;;;;;;13.75;10.00;;;;;5.66;68.45;102986.97;4943051;28;45370;-69
2023/12/18 07:37:06;;;;;;;;;19.00;15.50;;;;;5.66;68.26;102987.84;4945404;28;45689;-66
2023/12/18 07:39:32;;;;;;;;;16.50;13.25;;;;;5.65;68.24;102986.09;4938653;28;74411;-69
2023/12/18 07:41:57;;;;;;;;;16.25;13.75;;;;;5.62;68.34;102990.31;4941265;28;45417;-70
2023/12/18 07:44:22;;;;;;;;;17.00;12.00;;;;;5.58;68.12;102994.53;4941918;28;45501;-68
2023/12/18 07:46:50;;;;;;;;;17.25;9.25;;;;;5.56;68.10;102997.91;4947587;28;44814;-66
2023/12/18 07:49:16;;;;;;;;;20.75;15.75;;;;;5.55;67.94;103002.22;4936356;28;46479;-67
2023/12/18 07:51:41;;;;;;;;;57.25;43.50;;;;;5.52;68.14;102999.53;4939630;28;45468;-71
2023/12/18 07:54:06;;;;;;;;;50.00;39.75;;;;;5.50;68.11;102994.28;4941899;28;45512;-69
2023/12/18 07:56:32;;;;;;;;;27.25;21.25;;;;;5.49;68.21;102995.13;4932253;28;70226;-70
2023/12/18 07:58:57;;;;;;;;;19.75;14.75;;;;;5.47;68.12;102990.72;4944318;28;46391;-73
2023/12/18 08:01:22;;;;;;;;;59.75;45.75;;;;;5.48;68.16;103003.75;4942392;28;45517;-69
2023/12/18 08:03:48;;;;;;;;;75.75;52.75;;;;;5.46;68.02;103000.22;4945640;28;45648;-69
2023/12/18 08:06:13;;;;;;;;;26.50;21.00;;;;;5.43;68.16;102991.47;4961239;28;48001;-72
2023/12/18 08:08:38;;;;;;;;;65.25;44.75;;;;;5.39;68.14;102995.69;4946960;28;46527;-78
2023/12/18 08:11:04;;;;;;;;;22.75;19.00;;;;;5.40;68.06;102993.97;4955242;28;45342;-78
2023/12/18 08:13:29;;;;;;;;;18.75;12.50;;;;;5.38;67.88;102993.91;4960700;28;67869;-78
2023/12/18 08:15:54;;;;;;;;;18.00;13.00;;;;;5.37;67.79;102999.09;4940756;28;45396;-80
2023/12/18 08:18:20;;;;;;;;;22.25;13.00;;;;;5.32;67.99;102993.72;4937936;28;70348;-75
2023/12/18 08:20:45;;;;;;;;;26.75;14.50;;;;;5.34;68.14;103012.84;4959212;28;45382;-73
2023/12/18 08:23:11;;;;;;;;;19.50;14.75;;;;;5.32;67.75;103006.72;4938477;28;45729;-77
2023/12/18 08:25:36;;;;;;;;;30.50;16.00;;;;;5.27;67.96;103006.56;4934978;28;71316;-66
2023/12/18 08:28:01;;;;;;;;;20.00;14.75;;;;;5.20;68.09;102990.75;4947910;28;75924;-69
2023/12/18 08:30:27;;;;;;;;;19.50;17.50;;;;;5.21;68.32;103001.19;4948519;28;45520;-69
2023/12/18 08:32:52;;;;;;;;;21.25;13.00;;;;;5.20;68.40;102991.63;4946802;28;45473;-69
2023/12/18 08:35:17;;;;;;;;;19.50;15.25;;;;;5.21;68.29;102989.94;4941269;28;61672;-75
2023/12/18 08:37:43;;;;;;;;;13.50;13.50;;;;;5.20;68.27;102988.16;4943807;28;60167;-78
2023/12/18 08:40:09;;;;;;;;;22.00;13.75;;;;;5.22;68.34;102982.16;4948060;28;45406;-76
2023/12/18 08:42:34;;;;;;;;;17.00;13.50;;;;;5.24;68.43;102985.72;4944824;28;45381;-82
2023/12/18 08:44:59;;;;;;;;;18.00;13.25;;;;;5.30;68.40;102982.44;4945566;28;45555;-78
2023/12/18 08:47:25;;;;;;;;;18.25;14.75;;;;;5.33;68.36;102982.53;4948254;28;57025;-78
2023/12/18 08:49:50;;;;;;;;;19.50;13.50;;;;;5.37;68.29;102981.78;4963258;28;45544;-78
2023/12/18 08:52:16;;;;;;;;;26.25;20.75;;;;;5.39;68.18;102985.28;4953260;28;56754;-74
2023/12/18 08:54:41;;;;;;;;;20.25;17.00;;;;;5.43;68.34;102983.69;4945258;28;59499;-77
2023/12/18 08:57:06;;;;;;;;;19.25;14.75;;;;;5.41;68.28;102981.03;4946570;28;57207;-74
2023/12/18 08:59:32;;;;;;;;;25.50;15.75;;;;;5.42;68.14;102972.41;4946549;28;65391;-76
2023/12/18 09:01:57;;;;;;;;;21.00;18.25;;;;;5.46;68.15;102973.38;4949915;28;56724;-74
2023/12/18 09:04:22;;;;;;;;;21.00;17.50;;;;;5.46;67.87;102973.38;4938746;28;45417;-76
2023/12/18 09:06:48;;;;;;;;;19.25;15.25;;;;;5.48;67.72;102967.41;4945359;28;69299;-72
2023/12/18 09:09:14;;;;;;;;;16.75;12.75;;;;;5.51;67.67;102974.41;4961874;28;54818;-81
2023/12/18 09:11:39;;;;;;;;;18.00;14.50;;;;;5.51;67.42;102970.09;4944198;28;45999;-81
2023/12/18 09:14:04;;;;;;;;;20.75;16.75;;;;;5.53;67.52;102964.94;4956447;28;45441;-72
2023/12/18 09:16:31;;;;;;;;;19.00;14.25;;;;;5.56;67.33;102975.44;4952136;28;47077;-76
2023/12/18 09:18:56;;;;;;;;;21.50;12.50;;;;;5.57;67.23;102971.97;4947470;28;45400;-81
2023/12/18 09:21:21;;;;;;;;;15.50;11.00;;;;;5.63;67.08;102976.47;4935575;28;45993;-77
2023/12/18 09:23:47;;;;;;;;;21.50;16.00;;;;;5.68;67.07;102975.81;4940423;28;67034;-72
2023/12/18 09:26:13;;;;;;;;;18.00;13.50;;;;;5.70;66.59;102973.22;4951857;28;45390;-75
2023/12/18 09:28:39;;;;;;;;;14.25;13.75;;;;;5.72;66.50;102968.97;4946587;28;45644;-78
2023/12/18 09:31:07;;;;;;;;;13.75;12.25;;;;;5.75;66.23;102973.38;4944578;28;58396;-80
2023/12/18 09:33:33;;;;;;;;;19.00;16.75;;;;;5.76;66.38;102972.53;4938935;28;45465;-75
2023/12/18 09:35:59;;;;;;;;;17.25;16.75;;;;;5.76;66.41;102976.00;4958573;28;47195;-82
2023/12/18 09:38:25;;;;;;;;;21.75;14.25;;;;;5.76;66.25;102964.75;4943726;28;47287;-75
2023/12/18 09:40:50;;;;;;;;;19.50;14.00;;;;;5.79;66.11;102972.59;4963026;28;45477;-76
2023/12/18 09:43:19;;;;;;;;;21.00;13.50;;;;;5.77;65.88;102970.00;4938430;28;45994;-81
2023/12/18 09:45:48;;;;;;;;;22.25;18.75;;;;;5.80;66.12;102972.66;4946936;28;45582;-81
2023/12/18 09:48:16;;;;;;;;;23.50;15.50;;;;;5.79;65.82;102977.81;4949749;28;46079;-80
2023/12/18 09:50:45;;;;;;;;;24.25;16.75;;;;;5.77;65.64;102975.19;4945885;28;45472;-74
2023/12/18 09:53:13;;;;;;;;;27.25;17.50;;;;;5.75;65.71;102976.84;4961788;28;45508;-78
2023/12/18 09:55:40;;;;;;;;;20.50;14.00;;;;;5.76;65.91;102991.59;4943786;28;47040;-75
2023/12/18 09:58:06;;;;;;;;;22.25;16.50;;;;;5.78;65.91;102995.13;4949528;28;45783;-76
2023/12/18 10:00:32;;;;;;;;;18.75;15.50;;;;;5.80;65.73;102992.56;4941132;28;45229;-75
2023/12/18 10:02:59;;;;;;;;;16.25;16.00;;;;;5.85;65.82;102991.88;4946883;28;45649;-77
2023/12/18 10:05:25;;;;;;;;;22.50;14.00;;;;;5.85;65.35;102993.59;4943494;28;46259;-76
2023/12/18 10:07:52;;;;;;;;;20.25;14.25;;;;;5.84;65.33;102992.72;4941394;28;45365;-77
2023/12/18 10:10:18;;;;;;;;;22.75;16.00;;;;;5.83;65.38;102995.25;4948885;28;45489;-73
2023/12/18 10:12:43;;;;;;;;;14.50;13.00;;;;;5.80;65.02;102990.84;4951004;28;45421;-72
2023/12/18 10:15:09;;;;;;;;;23.00;16.00;;;;;5.74;64.80;102990.69;4942056;28;65884;-75
2023/12/18 10:17:37;;;;;;;;;19.00;14.75;;;;;5.69;64.55;102989.66;4941365;28;45753;-73
2023/12/18 10:20:02;;;;;;;;;22.25;16.75;;;;;5.63;64.86;102981.66;4945456;28;45442;-80
2023/12/18 10:22:28;;;;;;;;;21.00;13.50;;;;;5.65;64.22;102978.28;4933175;28;45790;-77
2023/12/18 10:24:56;;;;;;;;;15.75;12.75;;;;;5.66;64.66;102980.03;4942730;28;47176;-75
2023/12/18 10:27:22;;;;;;;;;24.50;17.25;;;;;5.68;64.61;102972.31;4938677;28;46163;-70
2023/12/18 10:29:47;;;;;;;;;30.75;16.75;;;;;5.71;64.63;102967.19;4948889;28;69265;-78
2023/12/18 10:32:12;;;;;;;;;23.75;17.25;;;;;5.74;64.66;102963.78;4961335;28;62661;-78
2023/12/18 10:34:37;;;;;;;;;17.25;15.75;;;;;5.73;64.25;102967.25;4939786;28;51410;-79
2023/12/18 10:37:03;;;;;;;;;24.75;17.75;;;;;5.73;64.31;102965.53;4940730;28;69797;-73
2023/12/18 10:39:29;;;;;;;;;17.00;16.00;;;;;5.72;64.42;102971.56;4948767;28;45315;-74
2023/12/18 10:41:59;;;;;;;;;24.50;17.00;;;;;5.70;64.20;102975.81;4940518;28;54675;-74
2023/12/18 10:44:25;;;;;;;;;51.75;37.25;;;;;5.68;64.23;102975.81;4931180;28;46149;-70
2023/12/18 10:46:50;;;;;;;;;49.75;40.00;;;;;5.73;64.41;102973.31;4951430;28;45412;-77
2023/12/18 10:49:20;;;;;;;;;27.50;16.25;;;;;5.73;64.41;102970.72;4949666;28;54818;-76
2023/12/18 10:51:46;;;;;;;;;23.25;15.25;;;;;5.73;64.27;102965.53;4948066;28;45244;-76
2023/12/18 10:54:11;;;;;;;;;19.25;16.25;;;;;5.75;64.00;102962.97;4951782;28;47353;-74
2023/12/18 10:56:38;;;;;;;;;19.25;15.75;;;;;5.73;64.33;102957.72;4948422;28;54281;-76
2023/12/18 10:59:08;;;;;;;;;18.75;15.25;;;;;5.73;64.18;102968.13;4953019;28;45259;-73
2023/12/18 11:01:34;;;;;;;;;25.00;17.25;;;;;5.73;64.31;102967.25;4945705;28;45507;-73
2023/12/18 11:04:01;;;;;;;;;22.75;17.50;;;;;5.74;63.95;102969.00;4949822;28;45445;-72
2023/12/18 11:06:28;;;;;;;;;27.00;17.75;;;;;5.69;63.93;102967.16;4932533;28;46107;-73
2023/12/18 11:08:53;;;;;;;;;18.25;17.00;;;;;5.69;63.95;102963.69;4940315;28;45492;-78